createdAt,value
2023-04-02T00:03:22.644Z,62.13
2023-04-02T00:08:29.879Z,61.85
2023-04-02T00:13:36.719Z,61.79
2023-04-02T00:18:47.138Z,62.21
2023-04-02T00:23:50.692Z,61.95
2023-04-02T00:28:53.693Z,61.63
2023-04-02T00:33:57.360Z,61.87
2023-04-02T00:39:24.389Z,61.62
2023-04-02T00:44:29.448Z,61.91
2023-04-02T00:49:38.395Z,61.68
2023-04-02T00:55:01.358Z,61.54
2023-04-02T01:00:31.359Z,60.85
2023-04-02T01:05:36.061Z,60.70
2023-04-02T01:10:52.373Z,60.62
2023-04-02T01:16:05.437Z,60.61
2023-04-02T01:21:46.257Z,60.56
2023-04-02T01:27:23.812Z,60.59
2023-04-02T01:32:30.288Z,60.71
2023-04-02T01:37:45.119Z,60.45
2023-04-02T01:43:06.643Z,60.49
2023-04-02T01:48:24.935Z,60.17
2023-04-02T01:53:30.946Z,60.63
2023-04-02T01:58:34.581Z,60.45
2023-04-02T02:03:42.844Z,61.50
2023-04-02T02:09:07.877Z,61.20
2023-04-02T02:14:20.986Z,61.24
2023-04-02T02:19:47.366Z,61.90
2023-04-02T02:24:50.712Z,62.05
2023-04-02T02:30:02.608Z,62.27
2023-04-02T02:35:30.021Z,61.53
2023-04-02T02:40:43.951Z,61.48
2023-04-02T02:45:48.434Z,61.34
2023-04-02T02:50:52.117Z,61.34
2023-04-02T02:56:01.426Z,61.79
2023-04-02T03:01:10.811Z,61.55
2023-04-02T03:06:20.999Z,61.78
2023-04-02T03:11:39.272Z,61.49
2023-04-02T03:16:49.476Z,61.67
2023-04-02T03:22:14.560Z,61.15
2023-04-02T03:27:28.539Z,61.27
2023-04-02T03:32:39.547Z,61.35
2023-04-02T03:37:58.989Z,60.88
2023-04-02T03:43:13.525Z,60.70
2023-04-02T03:48:39.515Z,60.78
2023-04-02T03:53:44.826Z,60.51
2023-04-02T03:58:55.877Z,60.71
2023-04-02T04:04:09.149Z,60.54
2023-04-02T04:09:36.009Z,59.85
2023-04-02T04:14:45.317Z,59.46
2023-04-02T04:20:07.982Z,58.78
2023-04-02T04:25:29.865Z,58.26
2023-04-02T04:31:04.222Z,57.69
2023-04-02T04:36:28.973Z,57.82
2023-04-02T04:41:48.480Z,57.70
2023-04-02T04:47:01.891Z,57.52
2023-04-02T04:52:17.093Z,56.84
2023-04-02T04:57:38.422Z,56.79
2023-04-02T05:03:13.829Z,56.94
2023-04-02T05:08:27.360Z,56.57
2023-04-02T05:14:04.441Z,56.13
2023-04-02T05:19:19.867Z,55.34
2023-04-02T05:24:54.019Z,54.96
2023-04-02T05:30:24.166Z,54.07
2023-04-02T05:35:37.048Z,53.30
2023-04-02T05:40:46.595Z,52.71
2023-04-02T05:45:57.008Z,52.38
2023-04-02T05:51:25.073Z,52.09
2023-04-02T05:56:39.401Z,51.54
2023-04-02T06:01:52.212Z,51.68
2023-04-02T06:07:16.838Z,51.36
2023-04-02T06:12:50.062Z,51.30
2023-04-02T06:18:08.207Z,50.35
2023-04-02T06:23:11.887Z,50.45
2023-04-02T06:28:25.969Z,49.75
2023-04-02T06:33:30.825Z,49.66
2023-04-02T06:38:35.632Z,49.08
2023-04-02T06:43:47.277Z,48.69
2023-04-02T06:49:05.541Z,48.58
2023-04-02T06:54:15.286Z,48.60
2023-04-02T06:59:20.546Z,48.05
2023-04-02T07:04:24.591Z,47.56
2023-04-02T07:09:29.538Z,46.66
2023-04-02T07:14:36.125Z,46.35
2023-04-02T07:19:39.177Z,46.67
2023-04-02T07:24:42.590Z,45.90
2023-04-02T07:29:45.616Z,45.85
2023-04-02T07:34:49.199Z,44.74
2023-04-02T07:39:52.242Z,43.60
2023-04-02T07:44:55.148Z,43.10
2023-04-02T07:49:58.099Z,42.93
2023-04-02T07:55:19.619Z,41.89
2023-04-02T08:00:23.941Z,41.57
2023-04-02T08:05:28.005Z,40.50
2023-04-02T08:10:31.137Z,40.09
2023-04-02T08:15:34.398Z,39.76
2023-04-02T08:20:37.888Z,38.12
2023-04-02T08:25:59.385Z,36.74
2023-04-02T08:31:02.536Z,36.57
2023-04-02T08:36:05.529Z,36.84
2023-04-02T08:41:16.025Z,36.23
2023-04-02T08:46:37.709Z,36.25
2023-04-02T08:51:41.576Z,35.62
2023-04-02T08:56:53.211Z,35.68
2023-04-02T09:02:07.903Z,35.20
2023-04-02T09:07:16.944Z,35.17
2023-04-02T09:12:28.000Z,35.69
2023-04-02T09:17:42.711Z,36.33
2023-04-02T09:22:51.646Z,35.60
2023-04-02T09:27:57.283Z,35.18
2023-04-02T09:33:03.055Z,34.94
2023-04-02T09:38:32.940Z,34.97
2023-04-02T09:43:37.888Z,34.80
2023-04-02T09:49:03.707Z,34.61
2023-04-02T09:54:13.982Z,33.73
2023-04-02T09:59:19.025Z,33.26
2023-04-02T10:04:45.133Z,32.69
2023-04-02T10:09:58.998Z,33.44
2023-04-02T10:15:04.401Z,33.82
2023-04-02T10:20:26.453Z,33.71
2023-04-02T10:26:20.576Z,33.20
2023-04-02T10:31:27.728Z,33.28
2023-04-02T10:36:58.045Z,33.04
2023-04-02T10:42:29.872Z,33.26
2023-04-02T10:47:48.745Z,33.31
2023-04-02T10:52:56.602Z,32.56
2023-04-02T10:58:07.830Z,32.15
2023-04-02T11:03:23.309Z,32.64
2023-04-02T11:08:33.607Z,32.95
2023-04-02T11:13:42.048Z,32.31
2023-04-02T11:19:16.873Z,32.78
2023-04-02T11:24:33.174Z,32.21
2023-04-02T11:29:59.869Z,31.93
2023-04-02T11:35:23.197Z,32.39
2023-04-02T11:40:58.155Z,32.55
2023-04-02T11:46:06.769Z,32.57
2023-04-02T11:51:22.649Z,32.58
2023-04-02T11:57:05.339Z,32.75
2023-04-02T12:02:35.220Z,32.46
2023-04-02T12:07:52.544Z,33.59
2023-04-02T12:12:55.595Z,33.81
2023-04-02T12:18:11.015Z,32.73
2023-04-02T12:23:26.689Z,32.69
2023-04-02T12:28:31.452Z,32.92
2023-04-02T12:33:39.858Z,32.44
2023-04-02T12:38:55.733Z,32.43
2023-04-02T12:43:59.852Z,32.09
2023-04-02T12:49:06.256Z,31.94
2023-04-02T12:54:15.449Z,31.55
2023-04-02T12:59:31.504Z,32.24
2023-04-02T13:04:47.830Z,31.38
2023-04-02T13:09:59.409Z,31.85
2023-04-02T13:15:05.123Z,31.54
2023-04-02T13:20:32.799Z,31.91
2023-04-02T13:25:37.184Z,32.07
2023-04-02T13:30:40.557Z,31.98
2023-04-02T13:35:44.274Z,31.77
2023-04-02T13:41:48.132Z,32.62
2023-04-02T13:47:02.756Z,32.01
2023-04-02T13:52:10.516Z,32.58
2023-04-02T13:57:31.911Z,32.46
2023-04-02T14:02:34.728Z,32.86
2023-04-02T14:08:09.156Z,33.22
2023-04-02T14:13:37.499Z,33.61
2023-04-02T14:19:25.297Z,33.81
2023-04-02T14:24:46.726Z,34.59
2023-04-02T14:30:11.189Z,35.20
2023-04-02T14:35:32.589Z,35.56
2023-04-02T14:41:00.055Z,36.37
2023-04-02T14:46:04.698Z,36.74
2023-04-02T14:51:17.715Z,36.71
2023-04-02T14:56:24.159Z,37.39
2023-04-02T15:01:41.538Z,37.37
2023-04-02T15:07:22.358Z,36.68
2023-04-02T15:12:32.021Z,36.62
2023-04-02T15:17:36.329Z,36.64
2023-04-02T15:22:57.402Z,36.70
2023-04-02T15:28:35.849Z,37.35
2023-04-02T15:33:57.228Z,37.77
2023-04-02T15:39:06.763Z,37.79
2023-04-02T15:44:15.254Z,38.57
2023-04-02T15:49:24.153Z,38.87
2023-04-02T15:55:05.125Z,39.74
2023-04-02T16:00:15.703Z,40.66
2023-04-02T16:05:44.614Z,40.56
2023-04-02T16:10:47.895Z,40.61
2023-04-02T16:15:56.506Z,40.75
2023-04-02T16:21:03.190Z,41.19
2023-04-02T16:26:34.002Z,40.92
2023-04-02T16:31:45.768Z,41.38
2023-04-02T16:37:13.121Z,41.38
2023-04-02T16:42:24.559Z,41.41
2023-04-02T16:47:53.421Z,41.79
2023-04-02T16:53:07.897Z,42.46
2023-04-02T16:58:26.659Z,43.57
2023-04-02T17:03:47.850Z,44.16
2023-04-02T17:09:14.862Z,44.57
2023-04-02T17:14:39.204Z,45.07
2023-04-02T17:19:44.960Z,45.70
2023-04-02T17:24:59.891Z,45.80
2023-04-02T17:30:12.873Z,46.08
2023-04-02T17:35:23.330Z,46.61
2023-04-02T17:40:39.366Z,46.58
2023-04-02T17:45:54.505Z,46.71
2023-04-02T17:51:22.078Z,47.00
2023-04-02T17:56:54.058Z,46.82
2023-04-02T18:02:34.774Z,46.84
2023-04-02T18:07:49.698Z,47.35
2023-04-02T18:13:03.481Z,47.19
2023-04-02T18:18:40.259Z,47.32
2023-04-02T18:23:55.579Z,47.69
2023-04-02T18:29:25.639Z,47.35
2023-04-02T18:35:02.346Z,48.01
2023-04-02T18:40:14.955Z,48.37
2023-04-02T18:46:13.157Z,49.24
2023-04-02T18:51:22.659Z,49.54
2023-04-02T18:56:27.073Z,49.52
2023-04-02T19:01:39.253Z,49.29
2023-04-02T19:06:47.261Z,49.14
2023-04-02T19:11:53.132Z,49.51
2023-04-02T19:17:20.439Z,49.90
2023-04-02T19:22:30.344Z,50.41
2023-04-02T19:27:58.279Z,50.56
2023-04-02T19:33:28.470Z,50.68
2023-04-02T19:38:49.586Z,51.19
2023-04-02T19:43:53.402Z,51.44
2023-04-02T19:49:23.099Z,50.77
2023-04-02T19:54:26.023Z,50.86
2023-04-02T19:59:28.868Z,50.83
2023-04-02T20:04:31.887Z,50.79
2023-04-02T20:09:35.185Z,51.19
2023-04-02T20:14:38.224Z,51.56
2023-04-02T20:19:41.561Z,51.59
2023-04-02T20:24:44.397Z,51.77
2023-04-02T20:29:48.254Z,51.42
2023-04-02T20:34:51.025Z,51.51
2023-04-02T20:39:54.010Z,51.34
2023-04-02T20:44:56.933Z,51.65
2023-04-02T20:49:59.850Z,51.47
2023-04-02T20:55:03.789Z,51.61
2023-04-02T21:00:08.441Z,51.93
2023-04-02T21:05:11.380Z,52.34
2023-04-02T21:10:14.625Z,52.65
2023-04-02T21:15:17.610Z,53.12
2023-04-02T21:20:20.455Z,53.24
2023-04-02T21:25:23.302Z,53.48
2023-04-02T21:30:26.331Z,53.55
2023-04-02T21:35:29.210Z,53.84
2023-04-02T21:40:31.950Z,53.68
2023-04-02T21:45:35.051Z,53.91
2023-04-02T21:50:38.363Z,54.04
2023-04-02T21:56:05.305Z,54.07
2023-04-02T22:01:14.044Z,54.62
2023-04-02T22:06:25.406Z,54.62
2023-04-02T22:11:31.560Z,54.59
2023-04-02T22:16:35.950Z,55.00
2023-04-02T22:21:39.679Z,55.68
2023-04-02T22:26:43.361Z,55.91
2023-04-02T22:31:46.399Z,56.25
2023-04-02T22:36:49.350Z,56.50
2023-04-02T22:41:52.342Z,56.32
2023-04-02T22:46:55.163Z,56.51
2023-04-02T22:51:58.096Z,56.71
2023-04-02T22:57:01.057Z,56.79
2023-04-02T23:02:03.960Z,56.51
2023-04-02T23:07:07.002Z,56.50
2023-04-02T23:12:10.149Z,56.85
2023-04-02T23:17:13.238Z,56.80
2023-04-02T23:22:16.227Z,57.39
2023-04-02T23:27:19.189Z,57.82
2023-04-02T23:32:22.118Z,58.06
2023-04-02T23:37:25.105Z,58.10
2023-04-02T23:42:28.481Z,58.11
2023-04-02T23:47:31.332Z,57.77
2023-04-02T23:52:34.213Z,57.31
2023-04-02T23:57:37.066Z,57.85
